ADDS METAR Data INFO
IDs: Format: Raw Decoded Include TAF

Data at: 2111 UTC 22 Oct 2017

KACP 222055Z AUTO 24005KT 10SM CLR 20/17 A3003 RMK AO2 60001 T01950166
KACP 222035Z AUTO 23004KT 10SM CLR 19/17 A3002 RMK AO2 T01880166
KACP 222015Z AUTO 25004KT 10SM SCT120 18/17 A3002 RMK AO2 T01820165
KACP 221955Z AUTO 00000KT 10SM -RA SCT047 SCT065 BKN100 18/16 A2998 RMK AO2 P0001 T01800162
KACP 221935Z AUTO 11005KT 10SM -DZ SCT037 BKN075 OVC090 18/16 A2995 RMK AO2 P0001 T01800162
KACP 221915Z AUTO 09006KT 7SM -RA SCT038 BKN060 OVC100 18/17 A2998 RMK AO2 P0001 T01820167
KACP 221855Z AUTO 11004KT 10SM SCT047 SCT055 OVC100 19/16 A3005 RMK AO2 T01850159
KACP 221835Z AUTO 00000KT 10SM OVC110 19/15 A3010 RMK AO2 T01900153
KACP 221815Z AUTO 00000KT 10SM OVC110 19/15 A3008 RMK AO2 T01870154
KACP 221755Z AUTO 00000KT 10SM OVC095 18/15 A3010 RMK AO2 60053 T01780154 10201 20156
KACP 221735Z AUTO 00000KT 10SM OVC095 18/15 A3011 RMK AO2 T01750154
KACP 221715Z AUTO 00000KT 10SM OVC095 17/15 A3013 RMK AO2 T01740151
KACP 221655Z AUTO 00000KT 10SM SCT085 OVC090 17/15 A3015 RMK AO2 T01710154
KACP 221635Z AUTO 00000KT 10SM SCT065 OVC075 17/15 A3018 RMK AO2 T01700145
KACP 221615Z AUTO 00000KT 10SM -RA OVC075 17/15 A3018 RMK AO2 T01650147
KACP 221555Z AUTO 36004KT 10SM -VCTSRA SCT047 SCT065 OVC075 16/15 A3016 RMK AO2 P0007 T01630146
KACP 221535Z AUTO 36006KT 10SM RA SCT049 OVC065 16/15 A3016 RMK AO2 P0007 T01610145
KACP 221515Z AUTO 36007KT 7SM RA BKN065 BKN080 OVC095 16/14 A3017 RMK AO2 P0004 T01560140
KACP 221455Z AUTO 35011G16KT 7SM RA SCT041 SCT050 OVC095 16/14 A3016 RMK AO2 LTG DSNT S AND W P0026 60046 T01560141
KACP 221435Z AUTO 34011G18KT 4SM +VCTSRA SCT039 BKN050 OVC070 16/14 A3017 RMK AO2 LTG DSNT ALQS P0022 T01570142
KACP 221415Z AUTO 34010G17KT 5SM TSRA SCT031 BKN055 OVC065 16/14 A3016 RMK AO2 LTG DSNT ALQS P0011 T01580142
KACP 221355Z AUTO 34012G21KT 10SM -TSRA OVC049 16/14 A3015 RMK AO2 LTG DSNT E THRU W P0020 T01600141
KACP 221335Z AUTO 36014G21KT 5SM -VCTSRA SCT013 BKN032 OVC047 16/14 A3011 RMK AO2 LTG DSNT S THRU N P0019 T01590144
KACP 221315Z AUTO 35020G28KT 4SM +VCTSRA BKN010 BKN015 OVC031 16/15 A3012 RMK AO2 LTG DSNT SW THRU NE P0012 T01620147
KACP 221255Z AUTO 33010G14KT 10SM VCTS SCT010 BKN015 OVC100 20/20 A3008 RMK AO2 LTG DSNT SW THRU NE T02010195
KACP 221235Z AUTO 33004KT 10SM TS SCT015 SCT060 BKN100 19/19 A3005 RMK AO2 LTG DSNT ALQS T01930187
KACP 221215Z AUTO 00000KT 10SM SCT100 19/18 A3003 RMK AO2 LTG DSNT ALQS T01900182
KACP 221155Z AUTO 00000KT 10SM SCT019 SCT031 SCT070 19/18 A3003 RMK AO2 LTG DSNT SE THRU W 70003 T01890181 10211 20188
KACP 221135Z AUTO 00000KT 1 3/4SM BR SCT018 SCT070 19/18 A3003 RMK AO2 LTG DSNT SW T01890181
KACP 221115Z AUTO 00000KT 7SM SCT018 SCT070 19/19 A3002 RMK AO2 LTG DSNT N SE AND NW T01930185
KACP 221055Z AUTO 00000KT 10SM SCT018 SCT026 BKN070 20/19 A3002 RMK AO2 LTG DSNT E AND SE T01960187
KACP 221035Z AUTO 00000KT 10SM BKN026 BKN031 BKN039 20/19 A3002 RMK AO2 LTG DSNT SE AND W T02000190
KACP 221015Z AUTO 00000KT 10SM BKN028 BKN033 20/19 A3001 RMK AO2 LTG DSNT E T02000190
KACP 220955Z AUTO 00000KT 10SM SCT028 20/19 A3001 RMK AO2 LTG DSNT SE T02000190
KACP 220935Z AUTO 00000KT 10SM SCT021 SCT026 20/19 A3000 RMK AO2 T02000190
KACP 220915Z AUTO 00000KT 10SM SCT008 BKN021 20/19 A3000 RMK AO2 LTG DSNT SE T02010190
KACP 220855Z AUTO 00000KT 10SM SCT024 20/19 A3000 RMK AO2 LTG DSNT N THRU SE T02010188
KACP 220835Z AUTO 11004KT 10SM SCT024 BKN031 SCT042 21/19 A2999 RMK AO2 LTG DSNT SE T02050188
KACP 220815Z AUTO 11004KT 10SM SCT016 SCT025 21/19 A3000 RMK AO2 LTG DSNT SE T02050190
KACP 220755Z AUTO 12003KT 10SM OVC016 21/19 A3000 RMK AO2 LTG DSNT E SE AND NW T02100193
KACP 220735Z AUTO 10003KT 10SM OVC016 21/19 A3000 RMK AO2 LTG DSNT SE T02110193
KACP 220715Z AUTO 11004KT 10SM VCTS OVC020 21/20 A3000 RMK AO2 LTG DSNT E AND SE T02100195
KACP 220655Z AUTO 10004KT 10SM OVC022 21/20 A3000 RMK AO2 LTG DSNT SE T02100195
KACP 220635Z AUTO 10004KT 10SM OVC020 21/20 A3001 RMK AO2 LTG DSNT E AND SE T02100195
KACP 220615Z AUTO 10006KT 10SM OVC020 21/20 A3001 RMK AO2 LTG DSNT E AND SE T02090195
KACP 220555Z AUTO 10007KT 10SM OVC022 21/19 A3001 RMK AO2 LTG DSNT E AND SE 60003 T02080193 10263 20208
KACP 220535Z AUTO 10006KT 10SM OVC022 21/20 A3002 RMK AO2 LTG DSNT E AND SE T02100196
KACP 220515Z AUTO 09004KT 10SM SCT007 OVC022 21/20 A3003 RMK AO2 LTG DSNT E T02120201
KACP 220455Z AUTO 09005KT 10SM SCT007 OVC022 21/20 A3003 RMK AO2 LTG DSNT NE THRU S P0001 T02130202 403110206
KACP 220435Z AUTO 09004KT 10SM SCT007 OVC022 22/20 A3004 RMK AO2 LTG DSNT NE THRU S P0001 T02150203
KACP 220415Z AUTO 09005KT 10SM BKN007 BKN020 OVC028 22/21 A3004 RMK AO2 LTG DSNT NE AND E P0001 T02160205
KACP 220355Z AUTO 10004KT 10SM -VCTSRA BKN009 OVC020 22/21 A3005 RMK AO2 LTG DSNT NE AND E P0002 T02200208
KACP 220335Z AUTO 11005KT 10SM SCT009 OVC020 22/21 A3005 RMK AO2 LTG DSNT NE AND E T02210208
KACP 220315Z AUTO 10005KT 10SM RA SCT009 BKN022 OVC029 23/21 A3004 RMK AO2 LTG DSNT E T02250205
KACP 220250Z AUTO 10007G16KT 10SM SCT011 BKN022 OVC046 23/21 A3003 RMK AO2 LTG DSNT N AND E T02280206
KACP 220235Z AUTO 10005KT 10SM -TSRA SCT025 BKN043 OVC049 23/21 A3002 RMK AO2 LTG DSNT N AND E T02320211
KACP 220215Z AUTO 09005KT 10SM SCT013 BKN025 OVC050 24/21 A3001 RMK AO2 LTG DSNT N AND E T02370210
KACP 220155Z AUTO 11008KT 10SM SCT013 BKN023 OVC048 24/21 A3001 RMK AO2 LTG DSNT N AND E T02400214
KACP 220135Z AUTO 10005KT 10SM TS BKN023 BKN030 OVC037 24/22 A3001 RMK AO2 LTG DSNT N THRU SE T02400215
KACP 220115Z AUTO 10005KT 10SM VCTS SCT030 SCT036 SCT042 24/22 A3001 RMK AO2 LTG DSNT N AND E T02410217
KACP 220055Z AUTO 12005KT 10SM VCTS CLR 24/22 A2999 RMK AO2 LTG DSNT N AND E T02440219
KACP 220035Z AUTO 13006KT 10SM VCTS SCT028 SCT034 BKN055 25/22 A2996 RMK AO2 LTG DSNT N THRU SE T02500217
KACP 220015Z AUTO 11006KT 10SM BKN032 BKN042 OVC055 26/22 A2997 RMK AO2 LTG DSNT N THRU SE T02580215
KACP 212355Z AUTO 11005KT 10SM SCT032 BKN039 BKN055 26/22 A2997 RMK AO2 LTG DSNT N THRU SE T02630216 10311 20262
KACP 212335Z AUTO 13003KT 10SM BKN034 BKN044 BKN055 27/22 A2997 RMK AO2 LTG DSNT N THRU SE T02690216
KACP 212315Z AUTO 15003KT 10SM SCT036 28/22 A2995 RMK AO2 LTG DSNT N THRU SE T02750217
KACP 212255Z AUTO 16003KT 10SM VCTS CLR 28/22 A2994 RMK AO2 LTG DSNT N THRU SE T02800218
KACP 212235Z AUTO 15004KT 10SM CLR 29/22 A2994 RMK AO2 LTG DSNT N THRU SE T02920215
KACP 212215Z AUTO 15005KT 10SM VCTS CLR 30/22 A2994 RMK AO2 LTG DSNT NW THRU NE T03000215
KACP 212155Z AUTO 14006KT 10SM SCT039 30/21 A2994 RMK AO2 LTG DSNT ALQS T02980214
KACP 212135Z AUTO 15005KT 10SM CLR 31/21 A2994 RMK AO2 LTG DSNT ALQS T03060212
KACP 212115Z AUTO 13006KT 10SM CLR 31/21 A2994 RMK AO2 LTG DSNT NW THRU E T03100213
KACP 212055Z AUTO 16007G14KT 10SM VCTS CLR 31/21 A2994 RMK AO2 LTG DSNT NE AND E T03100211
KACP 212035Z AUTO 17004KT 10SM SCT045 SCT090 30/22 A2994 RMK AO2 LTG DSNT NE THRU SE T03000216
KACP 212015Z AUTO 17006KT 10SM SCT045 SCT065 BKN080 29/22 A2995 RMK AO2 LTG DSNT NE THRU SE T02920221
KACP 211955Z AUTO 12005KT 10SM VCTS SCT041 SCT065 BKN080 29/22 A2995 RMK AO2 LTG DSNT NE THRU SE T02940218
KACP 211935Z AUTO 15003KT 10SM SCT080 30/22 A2996 RMK AO2 LTG DSNT E AND SE T02970217
KACP 211915Z AUTO 17004KT 10SM SCT032 SCT070 29/22 A2996 RMK AO2 LTG DSNT NE AND E T02930219
KACP 211855Z AUTO 13005KT 10SM SCT034 BKN070 30/22 A2996 RMK AO2 LTG DSNT E T02970217
KACP 211835Z AUTO 14007KT 110V170 10SM VCTS SCT029 SCT039 SCT049 31/22 A2998 RMK AO2 T03050219
KACP 211815Z AUTO 13005KT 10SM SCT029 SCT041 SCT048 29/22 A2999 RMK AO2 T02890221
KACP 211755Z AUTO 12006KT 10SM SCT025 SCT032 SCT043 29/22 A3000 RMK AO2 T02930220 10301 20225
KACP 211735Z AUTO 15006KT 10SM SCT025 SCT032 BKN043 30/22 A3001 RMK AO2 T03000224
KACP 211715Z AUTO 00000KT 10SM BKN021 BKN030 BKN040 28/22 A3002 RMK AO2 LTG DSNT SE T02790222
KACP 211655Z AUTO 12008KT 10SM BKN019 BKN025 BKN060 29/23 A3002 RMK AO2 T02880226
KACP 211635Z AUTO 12008KT 10SM OVC017 28/23 A3003 RMK AO2 T02810225
KACP 211615Z AUTO 13005KT 10SM OVC017 27/22 A3004 RMK AO2 T02700224
KACP 211555Z AUTO 12005KT 10SM OVC013 26/22 A3004 RMK AO2 LTG DSNT SE T02580221
KACP 211535Z AUTO 12006KT 10SM OVC013 26/22 A3004 RMK AO2 T02610221
KACP 211515Z AUTO 10004KT 10SM BKN011 BKN021 OVC036 26/23 A3004 RMK AO2 T02570225
KACP 211455Z AUTO 12005KT 10SM BKN009 OVC021 24/22 A3005 RMK AO2 T02420218
KACP 211435Z AUTO 12005KT 10SM BKN009 OVC019 24/22 A3004 RMK AO2 LTG DSNT SE T02400216
KACP 211415Z AUTO 11005KT 10SM OVC009 24/22 A3004 RMK AO2 T02360215
KACP 211355Z AUTO 12004KT 10SM OVC009 24/22 A3003 RMK AO2 T02350215
KACP 211335Z AUTO 13003KT 10SM BKN009 OVC017 23/22 A3003 RMK AO2 LTG DSNT SE T02330215
KACP 211315Z AUTO 12004KT 7SM BKN005 BKN010 OVC017 23/22 A3001 RMK AO2 LTG DSNT SE T02300215
KACP 211255Z AUTO 10005KT 7SM OVC005 23/21 A3001 RMK AO2 T02270213
KACP 211235Z AUTO 13003KT 7SM OVC005 23/21 A3000 RMK AO2 T02260213
KACP 211215Z AUTO 11004KT 7SM OVC005 23/21 A2999 RMK AO2 T02250212
KACP 211155Z AUTO 10006KT 7SM OVC005 23/21 A2999 RMK AO2 T02250212 10225 20212
KACP 211135Z AUTO 12005KT 7SM OVC005 23/21 A2999 RMK AO2 T02250212
KACP 211115Z AUTO 11005KT 7SM OVC005 22/21 A3000 RMK AO2 T02240212
KACP 211055Z AUTO 11003KT 7SM OVC005 22/21 A2999 RMK AO2 T02240211
KACP 211035Z AUTO 12005KT 7SM OVC005 23/21 A3000 RMK AO2 T02250211
KACP 211015Z AUTO 12004KT 7SM OVC007 23/21 A2999 RMK AO2 LTG DSNT S T02250211
KACP 210955Z AUTO 10004KT 7SM OVC007 23/21 A2999 RMK AO2 LTG DSNT S T02250211
KACP 210935Z AUTO 10006KT 7SM OVC007 22/21 A2999 RMK AO2 LTG DSNT S T02220210
KACP 210915Z AUTO 10004KT 7SM OVC007 22/21 A2999 RMK AO2 LTG DSNT S T02200208